Latest Weather Observations for Coonabarabran Airport

IDN60801

Issued at 7:35 pm EST Wednesday 23 July 2014 (issued every 30 minutes, with the page automatically refreshed every 10 minutes)

About weather observations | Map of weather stations | Latest weather observations for NSW | Other Formats
Station Details ID: 064017 Name: COONABARABRAN AIRPORT AWS Lat: -31.33 Lon: 149.27 Height: 645.0 m
Data from the previous 72 hours. | See also: Recent months for locations in New South Wales
Date/Time
EST
Temp
°C
App
Temp
°C
Dew
Point
Rel
Hum
%
Delta-T
°C
Wind Press
QNH
hPa
Press
MSL
hPa
Rain
since 9 am
mm
Dir
 
Spd
km/h
Gust
km/h
Spd
kts
Gust
kts
23/07:30pm 11.1 7.2 3.2 58 3.6 ENE 13 17 7 9 1021.6 - 0.0
23/07:00pm 11.1 7.2 3.4 59 3.5 ENE 13 17 7 9 1021.4 1021.5 0.0
23/06:30pm 11.5 7.2 3.3 57 3.7 ENE 15 17 8 9 1020.8 - 0.0
23/06:00pm 10.9 6.9 3.0 58 3.6 ENE 13 17 7 9 1021.0 1021.1 0.0
23/05:30pm 10.6 6.5 2.4 57 3.6 ENE 13 15 7 8 1020.9 - 0.0
23/05:00pm 12.5 8.9 3.2 53 4.3 ENE 11 13 6 7 1020.5 1020.7 0.0
23/04:30pm 13.5 9.2 3.3 50 4.7 ENE 15 20 8 11 1020.5 - 0.0
23/04:00pm 15.0 11.4 3.2 45 5.5 E 11 20 6 11 1020.4 1020.6 0.0
23/03:30pm 15.0 11.2 3.8 47 5.3 ENE 13 20 7 11 1020.4 - 0.0
23/03:00pm 15.3 11.7 3.1 44 5.7 ENE 11 15 6 8 1020.8 1020.9 0.0
23/02:30pm 15.8 13.0 3.3 43 5.9 E 7 13 4 7 1020.8 - 0.0
23/02:00pm 15.4 12.4 4.2 47 5.4 ENE 9 15 5 8 1020.9 1021.0 0.0
23/01:30pm 14.9 11.2 4.3 49 5.1 NE 13 19 7 10 1021.0 - 0.0
23/01:00pm 14.2 10.2 3.1 47 5.1 ENE 13 19 7 10 1021.4 1021.5 0.0
23/12:30pm 14.2 11.0 5.0 54 4.5 NNE 11 20 6 11 1022.1 - 0.0
23/12:00pm 13.7 10.4 6.3 61 3.7 ENE 13 19 7 10 1022.7 1022.8 0.0
23/11:30am 13.1 9.8 6.2 63 3.4 NE 13 19 7 10 1023.5 - 0.0
23/11:00am 12.3 8.9 6.1 66 3.0 NE 13 17 7 9 1024.2 1024.3 0.0
23/10:30am 11.4 8.0 6.1 70 2.6 NE 13 17 7 9 1024.6 - 0.0
23/10:00am 10.6 6.7 5.2 69 2.5 ENE 15 19 8 10 1025.0 1025.2 0.0
23/09:30am 10.3 7.3 5.9 74 2.1 ENE 11 15 6 8 1025.0 - 0.0
23/09:00am 10.0 7.4 6.3 78 1.8 ENE 9 17 5 9 1024.8 1025.0 0.2
23/08:30am 9.3 6.3 6.0 80 1.6 E 11 13 6 7 1024.5 - 0.2
23/08:00am 8.1 5.5 6.1 87 0.9 E 9 15 5 8 1024.2 1024.3 0.2
23/07:30am 6.9 4.0 4.9 87 0.9 SE 9 17 5 9 1023.7 - 0.2
23/07:00am 6.7 4.5 5.2 90 0.7 SSE 6 13 3 7 1023.3 1023.5 0.2
23/06:30am 5.5 1.8 4.5 93 0.4 E 13 15 7 8 1023.1 - 0.2
23/06:00am 7.0 4.2 5.0 87 0.9 ESE 9 15 5 8 1022.9 1023.0 0.2
23/05:30am 6.7 3.8 4.5 86 1.0 ESE 9 19 5 10 1022.6 - 0.2
23/05:00am 6.6 3.7 4.4 86 1.0 ENE 9 13 5 7 1022.5 1022.6 0.2
23/04:30am 7.2 4.3 4.9 85 1.1 ESE 9 17 5 9 1022.1 - 0.2
23/04:00am 7.0 4.1 4.8 86 1.0 SE 9 17 5 9 1022.0 1022.2 0.2
23/03:30am 6.9 4.2 5.5 91 0.6 S 9 15 5 8 1022.0 - 0.2
23/03:00am 6.7 3.8 4.9 88 0.8 SSE 9 11 5 6 1022.0 1022.2 0.2
23/02:30am 7.5 4.6 4.5 81 1.4 SSE 9 17 5 9 1022.0 - 0.2
23/02:00am 8.2 5.4 5.0 80 1.5 S 9 17 5 9 1022.3 1022.5 0.2
23/01:30am 8.0 5.1 4.8 80 1.5 SSE 9 17 5 9 1022.3 - 0.2
23/01:00am 7.9 5.0 4.7 80 1.5 ESE 9 13 5 7 1022.6 1022.7 0.2
23/12:30am 7.6 4.2 3.8 77 1.7 ESE 11 15 6 8 1022.8 - 0.2
23/12:00am 8.1 4.8 4.5 78 1.6 ESE 11 13 6 7 1023.0 1023.2 0.2
 
Date/Time
EST
Temp
°C
App
Temp
°C
Dew
Point
Rel
Hum
%
Delta-T
°C
Wind Press
QNH
hPa
Press
MSL
hPa
Rain
since 9 am
mm
Dir
 
Spd
km/h
Gust
km/h
Spd
kts
Gust
kts
22/11:30pm 8.1 4.8 4.3 77 1.7 E 11 15 6 8 1023.2 - 0.2
22/11:00pm 8.9 6.6 5.5 79 1.6 SE 7 17 4 9 1023.3 1023.5 0.2
22/10:30pm 9.2 6.9 5.6 78 1.7 ESE 7 15 4 8 1023.1 - 0.2
22/10:00pm 8.7 6.0 5.8 82 1.4 E 9 15 5 8 1023.0 1023.2 0.2
22/09:30pm 8.7 6.1 6.3 85 1.1 SE 9 19 5 10 1022.9 - 0.2
22/09:00pm 8.4 5.8 6.2 86 1.0 SSE 9 15 5 8 1023.0 1023.2 0.2
22/08:30pm 8.1 5.0 5.6 84 1.2 SSE 11 15 6 8 1022.8 - 0.2
22/08:00pm 8.7 5.3 6.0 83 1.3 S 13 17 7 9 1022.6 1022.7 0.2
22/07:30pm 9.0 5.6 5.9 81 1.5 SSE 13 15 7 8 1022.8 - 0.2
22/07:00pm 9.8 6.0 6.0 77 1.8 SSE 15 19 8 10 1022.8 1022.9 0.2
22/06:30pm 10.3 6.4 5.5 72 2.3 ESE 15 19 8 10 1022.6 - 0.2
22/06:00pm 10.9 6.8 6.3 73 2.2 ESE 17 22 9 12 1022.5 1022.6 0.2
22/05:30pm 11.0 7.7 6.4 73 2.2 ESE 13 17 7 9 1022.0 - 0.2
22/05:00pm 12.0 8.7 6.3 68 2.8 SE 13 19 7 10 1021.8 1022.0 0.2
22/04:30pm 12.6 9.2 5.8 63 3.3 SE 13 17 7 9 1021.4 - 0.2
22/04:00pm 13.5 8.8 5.2 57 4.0 SSE 19 24 10 13 1021.3 1021.4 0.2
22/03:30pm 14.6 10.0 5.7 55 4.4 SSE 19 26 10 14 1021.3 - 0.2
22/03:00pm 15.6 11.5 6.1 53 4.7 SE 17 20 9 11 1021.2 1021.3 0.2
22/02:30pm 15.4 11.0 6.4 55 4.5 S 19 24 10 13 1021.1 - 0.2
22/02:00pm 15.8 11.0 5.7 51 5.0 S 20 28 11 15 1021.0 1021.1 0.2
22/01:30pm 16.1 12.5 5.1 48 5.4 SSE 13 20 7 11 1021.1 - 0.2
22/01:00pm 15.7 12.6 3.8 45 5.7 SW 9 15 5 8 1021.3 1021.4 0.2
22/12:30pm 14.5 11.6 4.8 52 4.7 WSW 9 17 5 9 1021.8 - 0.2
22/12:00pm 14.7 13.0 7.5 62 3.7 SSW 6 15 3 8 1022.3 1022.5 0.2
22/11:30am 13.7 11.8 7.7 67 3.1 SSE 7 13 4 7 1023.0 - 0.0
22/11:00am 13.2 11.4 8.1 71 2.6 ESE 7 13 4 7 1023.2 1023.4 0.0
22/10:30am 12.2 11.5 8.7 79 1.8 S 2 7 1 4 1023.6 - 0.0
22/10:00am 10.0 7.8 7.8 86 1.1 SSW 9 13 5 7 1023.7 1023.9 0.0
22/09:30am 9.1 6.9 7.7 91 0.7 S 9 11 5 6 1023.6 - 0.0
22/09:00am 8.5 5.8 7.4 93 0.5 S 11 13 6 7 1023.4 1023.6 0.4
22/08:30am 7.9 5.5 7.0 94 0.4 S 9 11 5 6 1023.2 - 0.4
22/08:00am 7.9 5.5 7.1 95 0.4 S 9 17 5 9 1023.0 1023.2 0.4
22/07:30am 7.1 4.5 6.0 93 0.5 S 9 19 5 10 1022.9 - 0.4
22/07:00am 7.0 4.5 6.6 97 0.2 SSW 9 15 5 8 1022.6 1022.7 0.4
22/06:30am 7.1 4.7 6.8 98 0.1 SSW 9 13 5 7 1022.3 - 0.4
22/06:00am 6.9 4.4 6.5 97 0.2 SSW 9 15 5 8 1022.1 1022.3 0.4
22/05:30am 6.5 3.9 6.1 97 0.2 S 9 11 5 6 1021.8 - 0.4
22/05:00am 7.0 4.6 7.0 100 0.0 SW 9 15 5 8 1021.7 1021.9 0.4
22/04:30am 6.7 3.8 6.7 100 0.0 SW 11 11 6 6 1021.6 - 0.4
22/04:00am 7.0 4.2 7.0 100 0.0 SSW 11 13 6 7 1021.5 1021.6 0.4
22/03:30am 6.2 3.3 4.8 91 0.6 SSE 9 13 5 7 1021.6 - 0.4
22/03:00am 8.0 5.5 6.5 90 0.7 E 9 15 5 8 1021.6 1021.7 0.4
22/02:30am 7.8 6.8 7.4 97 0.2 E 2 7 1 4 1021.8 - 0.4
22/02:00am 7.3 4.9 7.0 98 0.1 WSW 9 15 5 8 1021.9 1022.1 0.4
22/01:30am 6.9 4.3 6.3 96 0.3 SSW 9 17 5 9 1021.9 - 0.4
22/01:00am 8.1 5.7 7.2 94 0.4 SSW 9 11 5 6 1022.0 1022.2 0.4
22/12:30am 8.0 5.1 6.5 90 0.7 SW 11 11 6 6 1022.1 - 0.4
22/12:00am 8.5 6.7 7.1 91 0.7 SSW 6 13 3 7 1022.2 1022.4 0.4
 
Date/Time
EST
Temp
°C
App
Temp
°C
Dew
Point
Rel
Hum
%
Delta-T
°C
Wind Press
QNH
hPa
Press
MSL
hPa
Rain
since 9 am
mm
Dir
 
Spd
km/h
Gust
km/h
Spd
kts
Gust
kts
21/11:30pm 8.7 6.3 6.8 88 0.9 SSW 9 19 5 10 1022.3 - 0.4
21/11:00pm 9.3 7.0 7.3 87 1.0 SSW 9 15 5 8 1022.3 1022.5 0.4
21/10:30pm 9.1 6.8 7.4 89 0.8 SW 9 19 5 10 1022.6 - 0.4
21/10:00pm 8.8 7.1 7.4 91 0.7 SW 6 15 3 8 1022.8 1022.9 0.4
21/09:30pm 9.1 7.2 7.5 90 0.8 SW 7 13 4 7 1022.7 - 0.4
21/09:00pm 9.2 6.8 7.2 87 1.0 SSW 9 13 5 7 1022.9 1023.0 0.4
21/08:30pm 10.0 7.4 7.8 86 1.1 E 11 11 6 6 1022.7 - 0.4
21/08:00pm 9.6 7.2 7.2 85 1.2 E 9 13 5 7 1022.6 1022.7 0.4
21/07:30pm 9.8 7.5 7.6 86 1.1 ENE 9 11 5 6 1022.7 - 0.4
21/07:00pm 10.0 8.0 7.3 83 1.3 SE 7 15 4 8 1022.7 1022.8 0.4
21/06:30pm 10.0 7.8 7.8 86 1.1 S 9 13 5 7 1022.6 - 0.4
21/06:00pm 10.2 8.3 9.0 92 0.6 SSW 9 13 5 7 1022.2 1022.4 0.4
21/05:30pm 10.8 8.8 8.7 87 1.1 W 9 13 5 7 1022.1 - 0.4
21/05:00pm 11.4 7.5 7.3 76 2.0 NNE 17 20 9 11 1021.7 1021.9 0.0
21/04:30pm 13.2 11.4 7.2 67 3.0 NNE 6 11 3 6 1021.6 - 0.0
21/04:00pm 14.0 11.9 6.8 62 3.6 ENE 7 13 4 7 1021.5 1021.6 0.0
21/03:30pm 14.2 12.1 6.6 60 3.8 E 7 15 4 8 1021.5 - 0.0
21/03:00pm 14.3 11.8 6.6 60 3.8 E 9 13 5 7 1021.5 1021.6 0.0
21/02:30pm 14.4 11.9 6.7 60 3.9 SE 9 15 5 8 1021.4 - 0.0
21/02:00pm 15.2 13.3 6.7 57 4.3 NE 6 15 3 8 1021.7 1021.9 0.0
21/01:30pm 15.6 13.4 6.3 54 4.7 WNW 7 13 4 7 1021.8 - 0.0
21/01:00pm 15.0 12.4 6.3 56 4.3 ENE 9 19 5 10 1022.1 1022.3 0.0
21/12:30pm 14.0 11.6 6.8 62 3.6 E 9 15 5 8 1022.5 - 0.0
21/12:00pm 13.3 10.0 6.4 63 3.4 NE 13 24 7 13 1023.1 1023.3 0.0
21/11:30am 13.2 9.7 7.0 66 3.1 ENE 15 24 8 13 1023.7 - 0.0
21/11:00am 11.8 7.4 6.7 71 2.5 NE 19 26 10 14 1024.3 1024.4 0.0
21/10:30am 11.3 7.7 6.8 74 2.2 NE 15 22 8 12 1024.7 - 0.0
21/10:00am 10.5 7.2 6.5 76 1.9 E 13 17 7 9 1025.1 1025.3 0.0
21/09:30am 9.7 6.3 6.1 78 1.7 E 13 20 7 11 1025.2 - 0.0
21/09:00am 9.5 6.2 6.4 81 1.5 E 13 19 7 10 1025.2 1025.4 0.0
21/08:30am 9.0 6.4 6.1 82 1.4 ESE 9 19 5 10 1025.0 - 0.0
21/08:00am 7.9 5.8 5.9 87 0.9 SSE 6 15 3 8 1024.9 1025.1 0.0
21/07:30am 6.5 3.7 5.1 91 0.6 SE 9 15 5 8 1024.6 - 0.0
21/07:00am 6.3 3.5 5.1 92 0.5 SE 9 15 5 8 1024.5 1024.7 0.0
21/06:30am 6.6 3.8 5.1 90 0.7 SE 9 15 5 8 1024.2 - 0.0
21/06:00am 6.9 3.4 5.5 91 0.6 ESE 13 17 7 9 1023.9 1024.1 0.0
21/05:30am 6.6 3.4 5.1 90 0.7 ESE 11 13 6 7 1023.8 - 0.0
21/05:00am 6.7 3.9 5.2 90 0.7 S 9 15 5 8 1023.6 1023.8 0.0
21/04:30am 7.1 4.3 5.3 88 0.8 S 9 17 5 9 1023.5 - 0.0
21/04:00am 6.6 3.9 5.4 92 0.5 S 9 19 5 10 1023.6 1023.8 0.0
21/03:30am 6.7 3.9 5.2 90 0.7 S 9 19 5 10 1023.5 - 0.0
21/03:00am 6.7 3.9 5.2 90 0.7 SE 9 19 5 10 1023.5 1023.7 0.0
21/02:30am 7.0 3.9 5.5 90 0.7 SE 11 13 6 7 1023.7 - 0.0
21/02:00am 7.4 4.3 5.4 87 0.9 ESE 11 15 6 8 1023.8 1024.0 0.0
21/01:30am 7.3 4.1 5.1 86 1.0 ESE 11 15 6 8 1024.2 - 0.0
21/01:00am 7.8 4.4 5.8 87 0.9 ESE 13 17 7 9 1024.2 1024.3 0.0
21/12:30am 7.7 4.3 5.7 87 0.9 ESE 13 15 7 8 1024.3 - 0.0
21/12:00am 7.5 4.3 5.0 84 1.1 E 11 15 6 8 1024.3 1024.4 0.0
 
Date/Time
EST
Temp
°C
App
Temp
°C
Dew
Point
Rel
Hum
%
Delta-T
°C
Wind Press
QNH
hPa
Press
MSL
hPa
Rain
since 9 am
mm
Dir
 
Spd
km/h
Gust
km/h
Spd
kts
Gust
kts
20/11:30pm 8.4 4.5 5.3 81 1.4 ESE 15 20 8 11 1024.3 - 0.0
20/11:00pm 8.3 4.4 5.2 81 1.4 E 15 17 8 9 1024.5 1024.7 0.0
20/10:30pm 9.1 5.6 5.3 77 1.8 E 13 17 7 9 1024.8 - 0.0
20/10:00pm 9.6 6.5 5.4 75 2.0 ESE 11 15 6 8 1024.9 1025.1 0.0
20/09:30pm 9.8 6.3 5.6 75 2.0 ESE 13 17 7 9 1024.8 - 0.0
20/09:00pm 9.9 6.0 5.5 74 2.1 E 15 20 8 11 1024.8 1025.0 0.0
20/08:30pm 10.2 6.4 5.8 74 2.1 ESE 15 20 8 11 1024.9 - 0.0
20/08:00pm 10.2 6.8 5.8 74 2.1 ESE 13 17 7 9 1024.8 1025.0 0.0

Other Formats:

Comma delimited format used in spreadsheet applications
http://www.bom.gov.au/fwo/IDN60801/IDN60801.95728.axf

JavaScript Object Notation format (JSON) in row-major order
http://www.bom.gov.au/fwo/IDN60801/IDN60801.95728.json